Terminal Aerodrome Forecast
Issued by NWS

Home | Current Version | Previous Version | Text Only | Print | Product List | Glossary On
Versions: 1 2 3 4 5 6 7 8 9 10 11 12 13 14 15 16 17 18 19 20 21 22
706
FTUS43 KAPX 110146 AAA
TAFTVC
TAF AMD
KTVC 110146Z 1102/1124 34010G18KT 1SM -SN BKN024 OVC035
     FM110200 34009KT 6SM -SHSN SCT025 OVC035
      TEMPO 1102/1106 2SM -SHSN OVC025
     FM110600 VRB03KT P6SM BKN030
     FM111000 21004KT P6SM BKN025
     FM111100 18004KT P6SM OVC025
     FM111500 17006KT 1SM -SHSN OVC015
     FM112300 24005KT 2SM -SHSN OVC015=

USA.gov is the U.S. government's official web portal to all federal, state and local government web resources and services.